NCAR-RAP Real-Time Weather Data

Output produced by METARs form (12 May 2021  11:11 UTC)
found at http://weather.rap.ucar.edu/surface/
 
KIGM 121051Z AUTO 00000KT 10SM CLR 17/M09 A3004 RMK AO2 SLP105 T01671094
KIGM 120951Z AUTO 00000KT 10SM CLR 16/M09 A3003 RMK AO2 SLP105 T01561089
KIGM 120851Z AUTO 15004KT 10SM CLR 16/M09 A3003 RMK AO2 SLP104 T01611089 51002
KIGM 120751Z AUTO 00000KT 10SM CLR 14/M09 A3003 RMK AO2 SLP107 T01391094
KIGM 120651Z AUTO 18005KT 10SM CLR 16/M09 A3002 RMK AO2 SLP105 T01561094 403060111
KIGM 120551Z AUTO 00000KT 10SM CLR 15/M10 A3002 RMK AO2 SLP106 T01501100 10300 20150 51015
KIGM 120451Z AUTO 12005KT 10SM CLR 17/M09 A3001 RMK AO2 SLP103 T01671094
KIGM 120351Z AUTO 13003KT 10SM CLR 19/M10 A2999 RMK AO2 SLP095 T01941100
KIGM 120251Z AUTO 03006KT 10SM CLR 24/M09 A2997 RMK AO2 SLP086 T02391094 53008
KIGM 120151Z AUTO 36012KT 10SM CLR 27/M09 A2996 RMK AO2 SLP080 T02721094
KIGM 120051Z AUTO 05013G20KT 10SM CLR 29/M09 A2995 RMK AO2 SLP081 T02891094
KIGM 112351Z AUTO 02012G20KT 10SM CLR 29/M09 A2995 RMK AO2 SLP077 T02941089 10306 20261 56007
KIGM 112251Z AUTO 35009KT 10SM CLR 29/M08 A2995 RMK AO2 SLP081 T02941078
KIGM 112151Z AUTO 31008KT 10SM CLR 30/M08 A2996 RMK AO2 SLP078 T03001083